createdAt,value
2022-10-17T00:02:15.639Z,2.92
2022-10-17T00:05:17.117Z,2.90
2022-10-17T00:08:18.804Z,3.10
2022-10-17T00:11:22.704Z,3.10
2022-10-17T00:14:24.129Z,2.90
2022-10-17T00:17:25.981Z,3.08
2022-10-17T00:23:30.369Z,2.80
2022-10-17T00:26:32.084Z,2.75
2022-10-17T00:29:33.521Z,2.88
2022-10-17T00:32:35.227Z,2.70
2022-10-17T00:35:36.659Z,3.33
2022-10-17T00:38:38.259Z,2.70
2022-10-17T00:41:39.827Z,3.40
2022-10-17T00:44:41.177Z,3.15
2022-10-17T00:47:47.028Z,2.97
2022-10-17T00:50:50.297Z,3.20
2022-10-17T00:53:51.864Z,2.78
2022-10-17T00:56:53.601Z,3.08
2022-10-17T00:59:57.683Z,3.38
2022-10-17T01:02:59.222Z,3.25
2022-10-17T01:06:00.695Z,3.17
2022-10-17T01:09:02.293Z,3.25
2022-10-17T01:12:20.268Z,3.05
2022-10-17T01:15:47.183Z,3.10
2022-10-17T01:19:07.097Z,2.95
2022-10-17T01:22:14.578Z,3.40
2022-10-17T01:25:40.997Z,2.95
2022-10-17T01:29:15.838Z,3.15
2022-10-17T01:32:25.995Z,3.20
2022-10-17T01:35:32.743Z,3.20
2022-10-17T01:38:44.017Z,3.15
2022-10-17T01:41:49.159Z,3.10
2022-10-17T01:45:16.350Z,3.38
2022-10-17T01:48:23.159Z,3.20
2022-10-17T01:51:37.893Z,2.80
2022-10-17T01:54:45.497Z,3.60
2022-10-17T01:57:54.437Z,3.10
2022-10-17T02:01:01.580Z,3.03
2022-10-17T02:04:08.841Z,3.15
2022-10-17T02:07:12.514Z,3.33
2022-10-17T02:10:30.688Z,3.25
2022-10-17T02:14:09.869Z,3.38
2022-10-17T02:17:44.696Z,3.33
2022-10-17T02:20:56.740Z,3.10
2022-10-17T02:24:13.029Z,3.55
2022-10-17T02:27:24.268Z,3.38
2022-10-17T02:30:48.747Z,2.90
2022-10-17T02:33:58.533Z,3.08
2022-10-17T02:37:03.363Z,3.30
2022-10-17T02:40:08.047Z,3.17
2022-10-17T02:43:13.225Z,3.50
2022-10-17T02:46:21.154Z,3.20
2022-10-17T02:49:31.346Z,3.22
2022-10-17T02:52:33.062Z,2.92
2022-10-17T02:55:41.937Z,2.92
2022-10-17T02:58:47.975Z,4.22
2022-10-17T03:01:51.629Z,2.97
2022-10-17T03:04:53.387Z,2.95
2022-10-17T03:07:56.021Z,3.40
2022-10-17T03:10:59.496Z,3.15
2022-10-17T03:14:02.799Z,3.03
2022-10-17T03:17:04.360Z,3.45
2022-10-17T03:20:07.113Z,3.13
2022-10-17T03:23:08.758Z,3.45
2022-10-17T03:26:11.069Z,3.20
2022-10-17T03:29:14.314Z,3.38
2022-10-17T03:32:16.049Z,2.88
2022-10-17T03:35:17.913Z,3.10
2022-10-17T03:38:22.785Z,3.28
2022-10-17T03:41:24.205Z,3.55
2022-10-17T03:44:25.804Z,2.95
2022-10-17T03:47:28.793Z,3.35
2022-10-17T03:50:31.104Z,3.15
2022-10-17T03:53:34.357Z,3.38
2022-10-17T03:56:35.813Z,3.63
2022-10-17T03:59:39.824Z,3.00
2022-10-17T04:02:47.426Z,3.05
2022-10-17T04:05:53.114Z,3.35
2022-10-17T04:08:54.686Z,3.10
2022-10-17T04:12:00.968Z,3.53
2022-10-17T04:15:02.741Z,3.35
2022-10-17T04:21:07.901Z,3.90
2022-10-17T04:24:11.705Z,3.58
2022-10-17T04:27:19.532Z,3.40
2022-10-17T04:30:21.381Z,3.47
2022-10-17T04:33:22.938Z,3.33
2022-10-17T04:36:24.605Z,3.58
2022-10-17T04:39:26.265Z,4.28
2022-10-17T04:42:29.884Z,3.40
2022-10-17T04:45:31.525Z,3.40
2022-10-17T04:48:38.550Z,3.30
2022-10-17T04:51:40.534Z,4.32
2022-10-17T04:54:51.878Z,3.50
2022-10-17T04:57:53.318Z,3.40
2022-10-17T05:00:56.596Z,3.80
2022-10-17T05:04:02.475Z,3.42
2022-10-17T05:07:04.367Z,3.75
2022-10-17T05:10:06.362Z,3.53
2022-10-17T05:13:09.364Z,3.83
2022-10-17T05:16:11.469Z,3.60
2022-10-17T05:19:13.173Z,3.58
2022-10-17T05:22:19.876Z,4.00
2022-10-17T05:25:21.752Z,3.67
2022-10-17T05:28:23.990Z,4.03
2022-10-17T05:31:27.055Z,3.80
2022-10-17T05:34:28.694Z,3.80
2022-10-17T05:37:31.495Z,3.70
2022-10-17T05:40:33.999Z,3.28
2022-10-17T05:43:35.960Z,3.88
2022-10-17T05:46:37.521Z,3.50
2022-10-17T05:49:46.303Z,4.53
2022-10-17T05:52:55.719Z,3.65
2022-10-17T05:56:03.359Z,3.53
2022-10-17T05:59:06.467Z,3.58
2022-10-17T06:02:18.729Z,3.97
2022-10-17T06:05:20.972Z,4.03
2022-10-17T06:08:22.709Z,3.50
2022-10-17T06:11:25.090Z,4.43
2022-10-17T06:14:26.619Z,3.80
2022-10-17T06:17:32.169Z,4.72
2022-10-17T06:20:34.761Z,3.53
2022-10-17T06:23:37.428Z,4.40
2022-10-17T06:26:49.773Z,3.55
2022-10-17T06:29:51.912Z,3.70
2022-10-17T06:32:53.881Z,3.47
2022-10-17T06:35:56.864Z,3.70
2022-10-17T06:38:59.818Z,3.83
2022-10-17T06:42:12.390Z,3.60
2022-10-17T06:45:21.176Z,5.18
2022-10-17T06:48:40.876Z,3.75
2022-10-17T06:52:02.649Z,3.83
2022-10-17T06:55:18.280Z,3.97
2022-10-17T06:58:46.303Z,4.00
2022-10-17T07:02:06.454Z,4.10
2022-10-17T07:05:08.655Z,3.80
2022-10-17T07:08:11.300Z,3.50
2022-10-17T07:11:16.154Z,3.35
2022-10-17T07:14:17.699Z,3.42
2022-10-17T07:17:19.145Z,3.47
2022-10-17T07:20:21.540Z,4.78
2022-10-17T07:23:23.502Z,4.13
2022-10-17T07:26:25.127Z,4.88
2022-10-17T07:29:26.707Z,3.50
2022-10-17T07:32:33.979Z,3.67
2022-10-17T07:35:38.320Z,4.68
2022-10-17T07:38:39.979Z,3.90
2022-10-17T07:41:41.577Z,3.70
2022-10-17T07:44:44.383Z,4.00
2022-10-17T07:47:46.973Z,3.92
2022-10-17T07:50:50.767Z,4.07
2022-10-17T07:53:52.165Z,3.70
2022-10-17T07:56:53.616Z,3.80
2022-10-17T07:59:55.059Z,4.03
2022-10-17T08:02:56.872Z,4.18
2022-10-17T08:06:00.191Z,4.20
2022-10-17T08:09:01.912Z,4.00
2022-10-17T08:12:03.585Z,3.63
2022-10-17T08:15:06.587Z,4.22
2022-10-17T08:18:08.012Z,3.63
2022-10-17T08:21:10.564Z,3.90
2022-10-17T08:24:11.969Z,4.15
2022-10-17T08:27:13.748Z,4.35
2022-10-17T08:30:15.303Z,4.38
2022-10-17T08:33:16.760Z,4.22
2022-10-17T08:36:19.886Z,4.05
2022-10-17T08:39:21.312Z,3.92
2022-10-17T08:42:30.411Z,3.78
2022-10-17T08:45:40.935Z,4.10
2022-10-17T08:48:46.552Z,3.97
2022-10-17T08:51:54.285Z,3.40
2022-10-17T08:54:56.052Z,3.95
2022-10-17T08:57:57.457Z,4.30
2022-10-17T09:01:13.251Z,4.00
2022-10-17T09:04:46.022Z,4.20
2022-10-17T09:11:41.741Z,3.75
2022-10-17T09:15:23.901Z,3.80
2022-10-17T09:18:32.849Z,3.75
2022-10-17T09:21:49.999Z,4.15
2022-10-17T09:24:55.793Z,4.47
2022-10-17T09:28:13.809Z,4.22
2022-10-17T09:31:42.109Z,4.35
2022-10-17T09:34:43.817Z,4.40
2022-10-17T09:37:46.045Z,4.63
2022-10-17T09:40:57.242Z,4.20
2022-10-17T09:44:09.116Z,4.40
2022-10-17T09:47:22.533Z,4.18
2022-10-17T09:50:34.217Z,4.53
2022-10-17T09:53:42.858Z,4.20
2022-10-17T09:56:59.072Z,4.28
2022-10-17T10:00:05.060Z,3.85
2022-10-17T10:03:22.035Z,4.00
2022-10-17T10:06:23.584Z,4.05
2022-10-17T10:09:27.846Z,3.80
2022-10-17T10:12:34.645Z,3.97
2022-10-17T10:15:41.399Z,4.18
2022-10-17T10:18:45.427Z,4.28
2022-10-17T10:21:57.088Z,3.53
2022-10-17T10:25:10.599Z,3.80
2022-10-17T10:28:12.204Z,3.63
2022-10-17T10:31:13.619Z,3.67
2022-10-17T10:34:23.452Z,3.83
2022-10-17T10:37:44.428Z,3.67
2022-10-17T10:40:49.495Z,3.80
2022-10-17T10:43:54.040Z,3.80
2022-10-17T10:47:20.452Z,3.78
2022-10-17T10:50:45.586Z,4.05
2022-10-17T10:53:53.381Z,4.00
2022-10-17T10:56:58.785Z,3.53
2022-10-17T11:00:15.634Z,3.70
2022-10-17T11:03:24.623Z,3.50
2022-10-17T11:06:30.384Z,3.92
2022-10-17T11:09:49.062Z,3.70
2022-10-17T11:12:56.971Z,3.20
2022-10-17T11:16:12.158Z,3.15
2022-10-17T11:19:25.346Z,3.20
2022-10-17T11:22:32.635Z,3.28
2022-10-17T11:25:36.807Z,3.60
2022-10-17T11:28:38.375Z,3.92
2022-10-17T11:31:47.297Z,3.28
2022-10-17T11:35:00.264Z,3.50
2022-10-17T11:38:20.461Z,3.67
2022-10-17T11:41:29.810Z,3.35
2022-10-17T11:44:37.049Z,3.20
2022-10-17T11:47:45.788Z,3.88
2022-10-17T11:54:18.724Z,3.42
2022-10-17T11:57:48.744Z,3.80
2022-10-17T12:01:05.344Z,3.58
2022-10-17T12:04:22.081Z,8.20
2022-10-17T12:07:35.737Z,3.08
2022-10-17T12:10:48.638Z,3.08
2022-10-17T12:13:53.006Z,3.33
2022-10-17T12:16:54.488Z,3.42
2022-10-17T12:20:25.034Z,3.03
2022-10-17T12:23:31.665Z,3.38
2022-10-17T12:26:33.124Z,2.70
2022-10-17T12:29:34.955Z,2.95
2022-10-17T12:33:00.098Z,3.20
2022-10-17T12:36:16.928Z,2.72
2022-10-17T12:39:18.305Z,7.05
2022-10-17T12:42:30.786Z,3.10
2022-10-17T12:45:44.499Z,3.03
2022-10-17T12:49:03.847Z,2.58
2022-10-17T12:52:11.049Z,2.50
2022-10-17T12:55:18.119Z,2.50
2022-10-17T12:58:19.543Z,2.50
2022-10-17T13:01:30.880Z,2.35
2022-10-17T13:04:36.975Z,2.67
2022-10-17T13:07:42.515Z,2.63
2022-10-17T13:10:48.984Z,2.30
2022-10-17T13:13:55.415Z,2.50
2022-10-17T13:17:00.467Z,2.50
2022-10-17T13:20:02.386Z,2.25
2022-10-17T13:23:04.193Z,2.55
2022-10-17T13:26:28.925Z,2.50
2022-10-17T13:29:32.114Z,2.72
2022-10-17T13:32:39.601Z,2.60
2022-10-17T13:35:59.340Z,2.72
2022-10-17T13:39:12.496Z,2.70
2022-10-17T13:42:24.410Z,2.65
2022-10-17T13:45:33.418Z,2.80
2022-10-17T13:48:37.889Z,2.63
2022-10-17T13:51:44.539Z,2.53
2022-10-17T13:54:53.995Z,2.50
2022-10-17T13:57:55.491Z,2.67
2022-10-17T14:00:57.762Z,2.85
2022-10-17T14:04:20.116Z,2.70
2022-10-17T14:07:58.256Z,2.72
2022-10-17T14:10:57.167Z,2.70
2022-10-17T14:17:01.360Z,3.10
2022-10-17T14:20:26.525Z,2.58
2022-10-17T14:23:34.493Z,2.60
2022-10-17T14:26:47.482Z,3.00
2022-10-17T14:29:54.019Z,3.00
2022-10-17T14:32:58.071Z,2.50
2022-10-17T14:36:02.506Z,2.60
2022-10-17T14:39:11.902Z,2.67
2022-10-17T14:42:20.750Z,2.50
2022-10-17T14:45:26.557Z,2.45
2022-10-17T14:48:29.386Z,2.78
2022-10-17T14:51:40.044Z,2.67
2022-10-17T14:54:52.285Z,2.73
2022-10-17T15:00:59.302Z,2.80
2022-10-17T15:04:00.750Z,2.60
2022-10-17T15:07:02.250Z,2.50
2022-10-17T15:10:04.837Z,2.70
2022-10-17T15:16:32.411Z,2.47
2022-10-17T15:19:33.830Z,3.00
2022-10-17T15:22:36.501Z,3.30
2022-10-17T15:25:38.904Z,3.30
2022-10-17T15:28:40.435Z,2.78
2022-10-17T15:31:42.005Z,2.92
2022-10-17T15:34:43.691Z,3.17
2022-10-17T15:37:46.710Z,2.85
2022-10-17T15:40:50.833Z,3.47
2022-10-17T15:43:52.330Z,3.20
2022-10-17T15:46:55.467Z,3.60
2022-10-17T15:49:57.205Z,3.10
2022-10-17T15:52:59.406Z,2.92
2022-10-17T15:56:01.632Z,2.90
2022-10-17T15:59:06.635Z,3.08
2022-10-17T16:02:14.377Z,3.10
2022-10-17T16:05:29.093Z,3.10
2022-10-17T16:08:31.068Z,3.08
2022-10-17T16:11:36.130Z,2.97
2022-10-17T16:14:37.901Z,3.15
2022-10-17T16:20:40.978Z,3.38
2022-10-17T16:23:43.458Z,3.15
2022-10-17T16:26:44.901Z,3.35
2022-10-17T16:29:46.586Z,3.20
2022-10-17T16:32:48.664Z,3.20
2022-10-17T16:35:50.113Z,3.30
2022-10-17T16:38:53.828Z,3.40
2022-10-17T16:41:57.793Z,3.20
2022-10-17T16:45:00.314Z,3.83
2022-10-17T16:48:01.818Z,4.10
2022-10-17T16:51:03.257Z,3.75
2022-10-17T16:54:04.722Z,4.03
2022-10-17T16:57:06.318Z,4.13
2022-10-17T17:00:08.377Z,4.10
2022-10-17T17:03:09.787Z,4.20
2022-10-17T17:06:20.553Z,4.13
2022-10-17T17:09:22.146Z,4.28
2022-10-17T17:12:23.578Z,3.40
2022-10-17T17:15:25.009Z,4.50
2022-10-17T17:18:26.424Z,3.97
2022-10-17T17:21:27.926Z,4.32
2022-10-17T17:24:29.582Z,4.15
2022-10-17T17:27:31.131Z,3.75
2022-10-17T17:30:34.332Z,3.97
2022-10-17T17:33:38.697Z,3.92
2022-10-17T17:36:40.240Z,3.78
2022-10-17T17:39:42.602Z,3.85
2022-10-17T17:42:43.997Z,4.20
2022-10-17T17:45:46.271Z,3.70
2022-10-17T17:48:48.845Z,4.07
2022-10-17T17:51:50.325Z,4.38
2022-10-17T17:54:51.725Z,4.40
2022-10-17T17:57:53.181Z,4.22
2022-10-17T18:00:54.694Z,4.53
2022-10-17T18:03:58.908Z,5.20
2022-10-17T18:07:00.355Z,4.70
2022-10-17T18:10:01.849Z,4.90
2022-10-17T18:13:03.339Z,4.65
2022-10-17T18:16:13.106Z,4.47
2022-10-17T18:19:14.544Z,4.40
2022-10-17T18:22:16.312Z,4.18
2022-10-17T18:25:17.784Z,4.45
2022-10-17T18:28:19.274Z,4.35
2022-10-17T18:31:28.576Z,5.35
2022-10-17T18:34:30.236Z,5.63
2022-10-17T18:37:32.150Z,5.72
2022-10-17T18:40:34.062Z,5.95
2022-10-17T18:43:37.431Z,6.05
2022-10-17T18:46:42.972Z,6.00
2022-10-17T18:49:44.628Z,5.47
2022-10-17T18:52:47.904Z,5.70
2022-10-17T18:55:51.320Z,5.72
2022-10-17T18:58:53.612Z,5.60
2022-10-17T19:01:55.224Z,6.40
2022-10-17T19:04:56.935Z,6.25
2022-10-17T19:07:58.499Z,6.03
2022-10-17T19:11:17.669Z,5.93
2022-10-17T19:14:19.323Z,6.05
2022-10-17T19:17:20.835Z,5.93
2022-10-17T19:20:22.468Z,5.30
2022-10-17T19:23:24.095Z,5.00
2022-10-17T19:26:27.819Z,5.40
2022-10-17T19:29:33.360Z,4.78
2022-10-17T19:32:36.577Z,4.70
2022-10-17T19:35:38.277Z,4.85
2022-10-17T19:38:40.173Z,5.10
2022-10-17T19:41:43.271Z,5.20
2022-10-17T19:44:44.813Z,4.68
2022-10-17T19:47:46.321Z,4.40
2022-10-17T19:50:49.680Z,4.50
2022-10-17T19:53:52.708Z,4.45
2022-10-17T19:56:54.437Z,4.72
2022-10-17T19:59:56.284Z,4.13
2022-10-17T20:02:58.056Z,3.88
2022-10-17T20:05:59.754Z,3.88
2022-10-17T20:09:01.610Z,3.75
2022-10-17T20:12:03.376Z,3.55
2022-10-17T20:15:06.020Z,3.67
2022-10-17T20:18:08.919Z,3.50
2022-10-17T20:21:14.087Z,3.50
2022-10-17T20:24:16.858Z,3.38
2022-10-17T20:27:18.464Z,3.47
2022-10-17T20:30:20.090Z,3.97
2022-10-17T20:33:21.698Z,3.28
2022-10-17T20:36:23.921Z,3.60
2022-10-17T20:39:26.614Z,3.20
2022-10-17T20:42:29.255Z,3.40
2022-10-17T20:45:45.063Z,3.50
2022-10-17T20:51:55.513Z,3.38
2022-10-17T20:54:57.064Z,3.60
2022-10-17T20:57:59.103Z,3.58
2022-10-17T21:04:44.176Z,3.10
2022-10-17T21:07:31.376Z,3.40
2022-10-17T21:13:37.984Z,3.20
2022-10-17T21:19:41.092Z,3.10
2022-10-17T21:22:42.600Z,3.20
2022-10-17T21:25:44.283Z,3.28
2022-10-17T21:28:47.453Z,3.10
2022-10-17T21:31:49.136Z,3.25
2022-10-17T21:34:50.666Z,3.08
2022-10-17T21:37:52.293Z,3.40
2022-10-17T21:40:56.071Z,3.10
2022-10-17T21:44:00.481Z,3.22
2022-10-17T21:47:02.576Z,3.33
2022-10-17T21:50:04.311Z,3.10
2022-10-17T21:53:05.932Z,3.08
2022-10-17T21:56:12.300Z,2.95
2022-10-17T21:59:13.924Z,3.13
2022-10-17T22:02:16.373Z,3.08
2022-10-17T22:05:17.933Z,3.20
2022-10-17T22:08:19.761Z,3.05
2022-10-17T22:11:26.491Z,3.10
2022-10-17T22:14:28.363Z,3.10
2022-10-17T22:17:30.123Z,3.38
2022-10-17T22:23:36.001Z,3.03
2022-10-17T22:26:38.292Z,3.10
2022-10-17T22:29:39.767Z,3.00
2022-10-17T22:32:41.278Z,3.45
2022-10-17T22:35:46.672Z,3.15
2022-10-17T22:38:48.432Z,2.97
2022-10-17T22:41:49.879Z,3.00
2022-10-17T22:44:51.281Z,3.20
2022-10-17T22:47:53.921Z,3.20
2022-10-17T22:50:57.483Z,3.22
2022-10-17T22:53:58.980Z,3.10
2022-10-17T22:57:00.363Z,3.40
2022-10-17T23:00:01.794Z,3.33
2022-10-17T23:03:03.371Z,3.22
2022-10-17T23:06:04.976Z,3.42
2022-10-17T23:09:06.386Z,2.90
2022-10-17T23:12:09.233Z,3.10
2022-10-17T23:15:10.722Z,3.78
2022-10-17T23:18:12.218Z,2.97
2022-10-17T23:21:13.825Z,3.05
2022-10-17T23:24:15.286Z,2.85
2022-10-17T23:27:16.734Z,3.20
2022-10-17T23:30:18.712Z,2.97
2022-10-17T23:33:20.095Z,2.95
2022-10-17T23:36:21.956Z,2.97
2022-10-17T23:39:23.421Z,3.00
2022-10-17T23:42:25.037Z,3.20
2022-10-17T23:45:26.450Z,3.00
2022-10-17T23:48:28.189Z,3.00
2022-10-17T23:51:29.572Z,2.67
2022-10-17T23:54:31.105Z,2.90
2022-10-17T23:57:32.837Z,3.30
